Providence, RI

7:37 AM EDT on August 20, 2014 (GMT -0400)
College Hill | Change Station
CLOSE
Current Station
Personal Weather Station
Location: Providence, RI
Elevation: 81 ft
Nearby Weather Stations
Active Advisory: Special Statement

Elev 81 ft 41.82 °N, 71.40 °W | Updated 10 seconds ago

Scattered Clouds
Scattered Clouds
64.1 °F
Feels Like 64.1 °F
N
1.0
Wind Variable Wind from West
Gusts 2.0 mph

Today
High -- | Low -- °F
--% Chance of Precip.
Yesterday
High -- | Low -- °F
Precip. -- in
5:58 AM 7:38 PM
Waning Crescent, 22% visible
Pressure 30.01 in
Visibility 10.0 miles
Clouds Few 500 ft
Few 1000 ft
Scattered Clouds 25000 ft
Dew Point 61 °F
Humidity 88%
Rainfall 0.00 in
Snow Depth Not available.
UV 0 out of 12
Pollen 9.60 out of 12
PM2.5 Good
Flu Activity Not available.
METAR KPVD 201051Z COR 31004KT 10SM FEW005 FEW010 SCT250 16/14 A3001 RMK AO2 SLP160 T01560144

More Conditions Fewer Conditions

Pressure 30.01 in
Visibility 10.0 miles
Clouds Few 500 ft
Few 1000 ft
Scattered Clouds 25000 ft
Dew Point 61 °F
Humidity 88%
Rainfall 0.00 in
Snow Depth Not available.
UV 0 out of 12
Pollen 9.60 out of 12
PM2.5 Good
Flu Activity Not available.
METAR KPVD 201051Z COR 31004KT 10SM FEW005 FEW010 SCT250 16/14 A3001 RMK AO2 SLP160 T01560144

More Conditions Fewer Conditions

10-Day Weather Forecast

Almanac

Astronomy

Aug. 20, 2014 Rise Set
Actual Time 5:58 AM EDT 7:38 PM EDT
Civil Twilight 5:29 AM EDT 8:07 PM EDT
Nautical Twilight 4:53 AM EDT 8:43 PM EDT
Astronomical Twilight 4:15 AM EDT 9:21 PM EDT
Moon 1:34 AM EDT 4:22 PM EDT
Length of Visible Light 14h 38m
Length of Day
13h 39m
Tomorrow will be 2m 34s shorter.
Waning Crescent, 22% of the Moon is Illuminated
Today
Waning Crescent
Aug 25
New
Sep 2
First Quarter
Sep 8
Full
Sep 15
Last Quarter

Today's Extremes

State Highs State Lows

Community

WunderPhotos

Upload Photos

1,745,611 photos uploaded!

Nearby

Air Quality

  Air Quality AQ Index Pollutant
Yesterday Good
PM2.5
Current Good
PM2.5
Wednesday Good
OZONE
Wednesday Good
PM2.5
Thursday Good
OZONE
Thursday Good
PM2.5
Friday Good
OZONE
Friday Good
PM2.5
Saturday Good
OZONE

Snow Depth

Station Depth Elevation
No new snow has been reported.

Earthquake Activity

City Distance Mag. Time & Date
Deep River Center, Connecticut 64 miles 2.7 3:09 AM EDT
2014-08-14
Minimum magnitude displayed is 2.5.

Coastal Water Temperatures

Place Temperature
Newport, RI 70.0 °F
Quonset Point, RI 71.1 °F
Conimicut Light, RI 72.0 °F

Nearby Weather Stations